Time;durP1;ratioP1;P1;durP2;ratioP2;P2;SDS_P1;SDS_P2;PMS_P1;PMS_P2;Temp;Humidity;BMP_temperature;BMP_pressure;BME280_temperature;BME280_humidity;BME280_pressure;Samples;Min_cycle;Max_cycle;Signal;HPM_P1;HPM_P2
2022/04/22 00:01:29;;;;;;;24.98;16.17;;;;;;;9.59;100.00;100281.31;5192807;28;20145;-76
2022/04/22 00:03:59;;;;;;;25.15;16.52;;;;;;;9.50;100.00;100273.81;5183857;28;20113;-76
2022/04/22 00:06:29;;;;;;;23.53;16.63;;;;;;;9.38;100.00;100278.63;5183934;28;20068;-77
2022/04/22 00:09:00;;;;;;;25.77;17.90;;;;;;;9.33;100.00;100277.94;5190834;28;20276;-77
2022/04/22 00:11:30;;;;;;;26.60;18.33;;;;;;;9.23;100.00;100274.81;5188882;28;20113;-75
2022/04/22 00:14:02;;;;;;;25.05;17.48;;;;;;;9.24;100.00;100270.44;5183728;28;20029;-76
2022/04/22 00:16:32;;;;;;;27.60;18.08;;;;;;;9.17;100.00;100275.00;5183607;28;20041;-76
2022/04/22 00:19:03;;;;;;;31.60;19.48;;;;;;;9.13;100.00;100270.81;5183797;28;20460;-76
2022/04/22 00:21:33;;;;;;;27.90;18.35;;;;;;;9.09;100.00;100270.97;5215146;22;20041;-77
2022/04/22 00:24:04;;;;;;;26.17;19.00;;;;;;;9.08;100.00;100268.41;5224154;28;20044;-78
2022/04/22 00:26:34;;;;;;;28.98;19.55;;;;;;;9.06;100.00;100268.47;5224409;28;20113;-77
2022/04/22 00:29:05;;;;;;;29.35;20.00;;;;;;;9.05;100.00;100271.97;5224367;28;20020;-77
2022/04/22 00:31:35;;;;;;;30.80;20.02;;;;;;;9.03;100.00;100260.75;5220254;28;20017;-77
2022/04/22 00:34:05;;;;;;;30.30;20.27;;;;;;;9.04;100.00;100257.25;5213929;28;20037;-77
2022/04/22 00:36:35;;;;;;;30.70;19.75;;;;;;;9.37;100.00;100256.06;5213939;28;20279;-77
2022/04/22 00:39:06;;;;;;;26.33;17.83;;;;;;;9.26;100.00;100251.22;5207714;28;20033;-77
2022/04/22 00:41:36;;;;;;;27.33;17.50;;;;;;;9.33;100.00;100246.66;5207423;28;20283;-78
2022/04/22 00:44:07;;;;;;;22.85;16.92;;;;;;;9.24;100.00;100249.56;5214043;28;20033;-77
2022/04/22 00:46:37;;;;;;;25.63;17.27;;;;;;;9.19;100.00;100247.16;5214879;28;20489;-77
2022/04/22 00:49:07;;;;;;;23.23;16.38;;;;;;;9.18;100.00;100249.78;5213654;28;20048;-78
2022/04/22 00:51:38;;;;;;;27.02;17.85;;;;;;;9.06;100.00;100245.00;5214244;28;20025;-77
2022/04/22 00:54:08;;;;;;;24.67;17.02;;;;;;;9.15;100.00;100249.91;5214065;28;20112;-77
2022/04/22 00:56:39;;;;;;;29.13;17.98;;;;;;;9.10;100.00;100246.59;5213266;28;20017;-78
2022/04/22 00:59:10;;;;;;;24.05;16.42;;;;;;;9.01;100.00;100246.94;5204252;28;20024;-77
2022/04/22 01:01:40;;;;;;;24.92;16.73;;;;;;;9.03;100.00;100239.91;5207380;28;20033;-77
2022/04/22 01:09:56;;;;;;;29.10;18.08;;;;;;;8.92;100.00;100226.38;5201770;28;20490;-77
2022/04/22 01:12:30;;;;;;;26.52;17.33;;;;;;;8.88;100.00;100224.78;5210612;28;20025;-77
2022/04/22 01:15:00;;;;;;;27.55;17.65;;;;;;;8.77;100.00;100216.50;5212098;28;20051;-77
2022/04/22 01:17:31;;;;;;;28.23;18.05;;;;;;;8.81;100.00;100227.66;5213961;28;20028;-78
2022/04/22 01:20:04;;;;;;;27.20;18.00;;;;;;;8.94;100.00;100223.72;5212381;28;20029;-77
2022/04/22 01:22:34;;;;;;;27.92;17.65;;;;;;;8.93;100.00;100220.25;5213256;28;20029;-78
2022/04/22 01:25:05;;;;;;;24.45;16.95;;;;;;;8.96;100.00;100219.31;5211928;28;20036;-78
2022/04/22 01:27:37;;;;;;;27.27;17.52;;;;;;;8.82;100.00;100216.31;5213236;28;20474;-78
2022/04/22 01:30:08;;;;;;;26.85;16.85;;;;;;;8.81;100.00;100212.88;5202050;28;20037;-77
2022/04/22 01:32:38;;;;;;;28.23;18.23;;;;;;;8.91;100.00;100205.59;5208586;28;20025;-77
2022/04/22 01:35:08;;;;;;;25.13;17.05;;;;;;;8.86;100.00;100203.16;5212910;28;20033;-78
2022/04/22 01:37:39;;;;;;;27.75;17.98;;;;;;;8.88;100.00;100205.72;5209991;28;20029;-78
2022/04/22 01:40:10;;;;;;;25.50;17.00;;;;;;;8.90;100.00;100207.34;5202119;28;20171;-77
2022/04/22 01:42:41;;;;;;;29.63;17.92;;;;;;;8.97;100.00;100201.03;5210540;28;20033;-78
2022/04/22 01:45:12;;;;;;;28.30;17.42;;;;;;;8.90;100.00;100191.72;5213543;28;20037;-77
2022/04/22 01:47:43;;;;;;;24.73;17.10;;;;;;;8.88;100.00;100193.53;5211951;28;20044;-77
2022/04/22 01:50:13;;;;;;;26.63;17.17;;;;;;;8.90;100.00;100196.91;5212568;28;20037;-77
2022/04/22 01:52:44;;;;;;;25.92;16.63;;;;;;;8.96;100.00;100191.50;5211509;28;20072;-78
2022/04/22 01:55:14;;;;;;;21.98;15.25;;;;;;;8.82;100.00;100193.75;5213315;28;20040;-77
2022/04/22 01:57:44;;;;;;;26.95;16.17;;;;;;;8.83;100.00;100190.22;5211513;28;20034;-77
2022/04/22 02:00:15;;;;;;;25.55;15.82;;;;;;;8.90;100.00;100188.28;5201334;28;20032;-78
2022/04/22 02:02:45;;;;;;;25.88;15.38;;;;;;;8.78;100.00;100184.34;5208607;28;20153;-77
2022/04/22 02:05:15;;;;;;;24.83;15.65;;;;;;;8.89;100.00;100183.97;5210848;28;20021;-78
2022/04/22 02:07:46;;;;;;;23.67;14.88;;;;;;;8.81;100.00;100181.63;5210030;28;20080;-77
2022/04/22 02:10:16;;;;;;;24.08;14.30;;;;;;;8.84;100.00;100181.50;5201696;28;20467;-78
2022/04/22 02:12:46;;;;;;;24.75;15.00;;;;;;;8.81;100.00;100180.75;5209574;28;20045;-78
2022/04/22 02:15:18;;;;;;;24.63;15.15;;;;;;;8.82;100.00;100178.09;5212585;28;20515;-78
2022/04/22 02:17:48;;;;;;;23.33;13.85;;;;;;;8.75;100.00;100175.78;5209501;28;20155;-77
2022/04/22 02:20:19;;;;;;;20.45;12.68;;;;;;;8.62;100.00;100177.09;5213060;28;20115;-78
2022/04/22 02:22:49;;;;;;;19.58;12.90;;;;;;;8.69;100.00;100169.00;5210110;28;20034;-78
2022/04/22 02:25:19;;;;;;;20.83;12.30;;;;;;;8.67;100.00;100168.22;5213311;28;20112;-77
2022/04/22 02:30:38;;;;;;;20.30;11.38;;;;;;;8.71;100.00;100174.19;5201229;28;20132;-78
2022/04/22 02:33:09;;;;;;;18.10;10.20;;;;;;;8.66;100.00;100161.31;5209474;28;20115;-77
2022/04/22 02:35:39;;;;;;;17.50;10.40;;;;;;;8.71;100.00;100159.38;5211716;28;20030;-77
2022/04/22 02:38:10;;;;;;;17.23;10.75;;;;;;;8.84;100.00;100163.28;5206938;28;20041;-78
2022/04/22 02:46:18;;;;;;;17.75;11.38;;;;;;;8.82;100.00;100143.38;5212340;28;20059;-77
2022/04/22 02:48:48;;;;;;;15.52;9.82;;;;;;;8.79;100.00;100146.97;5210180;28;20021;-77
2022/04/22 02:51:18;;;;;;;12.25;8.05;;;;;;;8.54;100.00;100150.47;5212377;28;20681;-77
2022/04/22 02:53:49;;;;;;;11.13;6.82;;;;;;;8.58;100.00;100152.88;5210189;28;20430;-78
2022/04/22 02:56:20;;;;;;;11.35;6.20;;;;;;;8.57;100.00;100151.19;5212667;28;20031;-77
2022/04/22 02:58:51;;;;;;;7.88;5.13;;;;;;;8.59;100.00;100154.59;5208354;28;20464;-77
2022/04/22 03:01:22;;;;;;;8.65;4.60;;;;;;;8.34;100.00;100156.34;5210754;28;20054;-77
2022/04/22 03:03:52;;;;;;;10.43;4.68;;;;;;;8.30;100.00;100162.56;5209467;28;20029;-77
2022/04/22 03:06:24;;;;;;;6.93;4.25;;;;;;;8.26;100.00;100154.88;5212753;28;20036;-77
2022/04/22 03:08:55;;;;;;;24.13;10.70;;;;;;;8.29;100.00;100155.66;5203725;28;20217;-77
2022/04/22 03:11:25;;;;;;;7.35;4.05;;;;;;;8.38;100.00;100150.13;5204272;28;20025;-77
2022/04/22 03:13:55;;;;;;;6.38;3.95;;;;;;;8.37;100.00;100145.81;5209197;28;20072;-77
2022/04/22 03:16:26;;;;;;;9.00;3.97;;;;;;;8.31;100.00;100134.75;5212422;28;20492;-77
2022/04/22 03:18:57;;;;;;;8.30;4.05;;;;;;;8.49;100.00;100144.53;5209354;28;20518;-78
2022/04/22 03:21:27;;;;;;;12.88;4.20;;;;;;;8.32;100.00;100145.13;5212302;28;20033;-78
2022/04/22 03:23:57;;;;;;;9.23;4.43;;;;;;;8.23;100.00;100145.41;5209145;28;20253;-78
2022/04/22 03:26:28;;;;;;;9.27;4.20;;;;;;;8.05;100.00;100148.59;5212310;28;20027;-77
2022/04/22 03:28:58;;;;;;;8.13;4.03;;;;;;;8.30;100.00;100143.47;5209266;28;20029;-77
2022/04/22 03:31:28;;;;;;;8.48;3.75;;;;;;;8.09;100.00;100151.94;5214902;28;20035;-78
2022/04/22 03:33:59;;;;;;;10.00;3.50;;;;;;;8.07;100.00;100141.56;5214254;28;20577;-78
2022/04/22 03:36:29;;;;;;;8.27;3.30;;;;;;;8.14;100.00;100139.63;5216990;28;20283;-78
2022/04/22 03:38:59;;;;;;;6.70;3.33;;;;;;;8.16;100.00;100141.28;5208998;28;20025;-78
2022/04/22 03:41:30;;;;;;;7.47;3.20;;;;;;;7.84;100.00;100132.81;5208541;28;20031;-78
2022/04/22 03:44:00;;;;;;;8.93;3.03;;;;;;;7.88;100.00;100137.84;5213301;28;20029;-78
2022/04/22 03:46:31;;;;;;;8.23;3.05;;;;;;;7.87;100.00;100128.34;5212706;28;20368;-77
2022/04/22 03:49:04;;;;;;;8.80;2.80;;;;;;;7.96;100.00;100130.69;5216339;28;20540;-78
2022/04/22 03:51:34;;;;;;;6.32;2.90;;;;;;;8.02;100.00;100135.69;5214153;28;20396;-78
2022/04/22 03:54:05;;;;;;;6.50;2.83;;;;;;;7.97;100.00;100142.78;5215810;28;20025;-79
2022/04/22 03:59:35;;;;;;;6.82;3.03;;;;;;;7.70;100.00;100141.03;5198592;28;20053;-78
2022/04/22 04:02:05;;;;;;;7.68;2.60;;;;;;;7.64;100.00;100137.78;5209832;28;20035;-78
2022/04/22 04:04:35;;;;;;;9.98;2.72;;;;;;;7.89;100.00;100134.34;5211196;28;20490;-78
2022/04/22 04:07:06;;;;;;;9.80;3.17;;;;;;;7.91;100.00;100142.97;5210315;28;20451;-78
2022/04/22 04:18:03;;;;;;;6.65;2.80;;;;;;;7.54;100.00;100146.78;5209674;28;20048;-78
2022/04/22 04:23:22;;;;;;;10.38;3.38;;;;;;;7.54;100.00;100137.19;5211861;28;20025;-77
2022/04/22 04:25:52;;;;;;;9.43;3.00;;;;;;;7.40;100.00;100130.72;5211103;28;20021;-78
2022/04/22 04:28:23;;;;;;;7.10;2.70;;;;;;;7.43;100.00;100130.63;5212745;28;20037;-77
2022/04/22 04:30:54;;;;;;;9.82;2.90;;;;;;;7.39;100.00;100137.66;5207373;28;20025;-78
2022/04/22 04:33:25;;;;;;;7.93;3.20;;;;;;;7.26;100.00;100145.03;5208526;28;20025;-77
2022/04/22 04:35:55;;;;;;;7.07;2.90;;;;;;;7.40;100.00;100134.19;5216177;28;20032;-78
2022/04/22 04:38:27;;;;;;;4.82;2.90;;;;;;;7.43;100.00;100136.69;5207404;28;20387;-78
2022/04/22 04:40:59;;;;;;;5.88;3.10;;;;;;;7.43;100.00;100139.28;5202321;28;20030;-78
2022/04/22 04:43:29;;;;;;;7.63;3.10;;;;;;;7.43;100.00;100136.69;5213847;28;20025;-78
2022/04/22 04:45:59;;;;;;;6.05;2.80;;;;;;;7.56;100.00;100130.22;5212404;28;20040;-78
2022/04/22 04:48:30;;;;;;;6.82;2.97;;;;;;;7.47;100.00;100142.63;5215244;28;20029;-78
2022/04/22 04:51:00;;;;;;;5.80;2.80;;;;;;;7.64;100.00;100135.16;5212235;28;20131;-78
2022/04/22 04:53:30;;;;;;;6.45;3.10;;;;;;;7.76;100.00;100148.66;5214657;28;20032;-78
2022/04/22 04:56:02;;;;;;;8.65;3.00;;;;;;;7.85;100.00;100129.31;5212217;28;20029;-77
2022/04/22 04:58:32;;;;;;;8.18;2.83;;;;;;;7.60;100.00;100131.84;5212633;28;20022;-77
2022/04/22 05:01:03;;;;;;;5.50;3.03;;;;;;;7.69;100.00;100135.91;5210307;28;20147;-78
2022/04/22 05:03:33;;;;;;;6.22;2.70;;;;;;;7.77;100.00;100126.97;5211407;28;20022;-78
2022/04/22 05:06:04;;;;;;;6.40;2.90;;;;;;;7.88;100.00;100132.66;5212331;28;20422;-78
2022/04/22 05:08:34;;;;;;;7.30;2.55;;;;;;;7.76;100.00;100138.28;5208650;28;20017;-78
2022/04/22 05:11:04;;;;;;;7.60;2.58;;;;;;;7.91;100.00;100129.97;5210171;28;20092;-78
2022/04/22 05:13:35;;;;;;;5.50;2.80;;;;;;;8.02;100.00;100129.63;5212069;28;20040;-78
2022/04/22 05:16:05;;;;;;;8.27;2.88;;;;;;;8.16;100.00;100133.47;5212023;28;20029;-78
2022/04/22 05:18:36;;;;;;;6.00;2.75;;;;;;;7.95;100.00;100123.78;5212454;28;20029;-79
2022/04/22 05:21:06;;;;;;;8.43;2.80;;;;;;;7.85;100.00;100124.13;5214050;28;20405;-79
2022/04/22 05:23:37;;;;;;;6.40;3.03;;;;;;;8.03;100.00;100120.94;5213585;28;20021;-79
2022/04/22 05:26:07;;;;;;;6.03;3.10;;;;;;;7.85;100.00;100121.53;5213372;28;20490;-78
2022/04/22 05:28:37;;;;;;;6.43;2.90;;;;;;;7.81;100.00;100112.97;5214352;28;20581;-78
2022/04/22 05:33:56;;;;;;;8.68;3.30;;;;;;;7.88;100.00;100114.44;5206658;28;20036;-78
2022/04/22 05:36:26;;;;;;;8.05;3.50;;;;;;;7.85;100.00;100117.16;5206870;28;20030;-79
2022/04/22 05:38:57;;;;;;;5.60;2.92;;;;;;;7.94;100.00;100116.00;5205003;28;20060;-78
2022/04/22 05:41:28;;;;;;;7.32;3.22;;;;;;;7.90;100.00;100122.22;5209615;28;20029;-79
2022/04/22 05:43:58;;;;;;;8.30;3.00;;;;;;;7.81;100.00;100115.56;5208873;28;20100;-79
2022/04/22 05:46:29;;;;;;;6.28;3.22;;;;;;;7.80;100.00;100121.66;5204523;28;20021;-79
2022/04/22 05:48:59;;;;;;;7.68;3.17;;;;;;;7.71;100.00;100123.69;5210342;28;20041;-79
2022/04/22 05:51:29;;;;;;;5.60;3.05;;;;;;;7.63;100.00;100123.94;5214639;28;20032;-79
2022/04/22 05:53:59;;;;;;;8.07;3.28;;;;;;;7.70;100.00;100119.41;5209683;28;20029;-78
2022/04/22 05:56:29;;;;;;;10.55;4.57;;;;;;;7.95;100.00;100118.56;5209903;28;20035;-79
2022/04/22 05:59:00;;;;;;;7.53;3.35;;;;;;;7.76;100.00;100121.81;5205048;28;20605;-79
2022/04/22 06:01:30;;;;;;;8.25;3.15;;;;;;;8.01;100.00;100128.78;5207063;28;20025;-79
2022/04/22 06:04:00;;;;;;;7.85;3.20;;;;;;;7.88;100.00;100127.47;5207988;28;20037;-79
2022/04/22 06:06:30;;;;;;;10.35;3.17;;;;;;;7.88;100.00;100131.81;5212765;28;20020;-79
2022/04/22 06:11:50;;;;;;;10.82;3.25;;;;;;;7.76;100.00;100133.06;5206241;28;20052;-79
2022/04/22 06:14:20;;;;;;;7.68;3.40;;;;;;;7.77;100.00;100142.56;5211882;28;20029;-79
2022/04/22 06:16:50;;;;;;;9.00;3.95;;;;;;;7.70;100.00;100141.03;5208294;28;20439;-79
2022/04/22 06:19:20;;;;;;;7.65;3.50;;;;;;;7.22;100.00;100134.69;5211087;28;20036;-79
2022/04/22 06:21:50;;;;;;;7.82;3.80;;;;;;;7.35;100.00;100136.06;5226128;22;20049;-76
2022/04/22 06:24:21;;;;;;;10.57;3.60;;;;;;;7.37;100.00;100139.47;5204564;28;20048;-77
2022/04/22 06:26:51;;;;;;;12.07;4.47;;;;;;;7.09;100.00;100136.88;5194173;28;20018;-77
2022/04/22 06:29:22;;;;;;;9.20;4.00;;;;;;;7.36;100.00;100136.94;5195395;28;20060;-76
2022/04/22 06:31:53;;;;;;;8.85;4.07;;;;;;;7.08;100.00;100149.00;5180684;28;20025;-76
2022/04/22 06:34:24;;;;;;;9.95;4.57;;;;;;;7.07;100.00;100136.06;5164737;28;20117;-76
2022/04/22 06:36:54;;;;;;;8.05;3.92;;;;;;;6.92;100.00;100145.13;5167335;28;20274;-77
2022/04/22 06:39:25;;;;;;;9.18;4.57;;;;;;;7.04;100.00;100142.19;5171787;28;20257;-76
2022/04/22 06:47:34;;;;;;;11.45;4.63;;;;;;;7.42;100.00;100137.59;5170173;28;20058;-76
2022/04/22 06:50:04;;;;;;;9.65;4.22;;;;;;;7.59;100.00;100145.75;5166210;28;20026;-76
2022/04/22 06:52:35;;;;;;;9.05;4.60;;;;;;;7.14;100.00;100142.78;5164099;28;20093;-76
2022/04/22 06:55:06;;;;;;;11.73;5.10;;;;;;;7.21;100.00;100142.56;5172481;28;20861;-76
2022/04/22 06:57:39;;;;;;;12.52;5.03;;;;;;;7.49;100.00;100148.66;5173191;28;20517;-76
2022/04/22 07:00:10;;;;;;;10.82;5.10;;;;;;;7.54;100.00;100133.78;5172077;28;20089;-76
2022/04/22 07:02:41;;;;;;;12.35;5.63;;;;;;;7.50;100.00;100142.56;5173964;28;20058;-76
2022/04/22 07:05:12;;;;;;;13.93;5.35;;;;;;;7.89;100.00;100134.34;5171677;28;20068;-76
2022/04/22 07:07:43;;;;;;;9.85;5.13;;;;;;;7.67;100.00;100133.34;5172651;28;20026;-76
2022/04/22 07:10:13;;;;;;;12.38;5.60;;;;;;;7.57;100.00;100134.53;5176899;28;20104;-76
2022/04/22 07:12:44;;;;;;;11.73;5.78;;;;;;;7.72;100.00;100131.44;5174235;28;20037;-77
2022/04/22 07:15:14;;;;;;;9.27;5.35;;;;;;;7.63;100.00;100126.53;5172663;28;20037;-77
2022/04/22 07:17:45;;;;;;;16.27;5.95;;;;;;;7.79;100.00;100122.56;5174494;28;20030;-76
2022/04/22 07:20:16;;;;;;;11.55;5.82;;;;;;;7.86;100.00;100118.84;5172808;28;20439;-76
2022/04/22 07:22:46;;;;;;;12.88;5.70;;;;;;;7.72;100.00;100135.81;5174640;28;20040;-76
2022/04/22 07:25:18;;;;;;;10.40;5.47;;;;;;;7.48;100.00;100134.81;5173039;28;20022;-77
2022/04/22 07:27:48;;;;;;;13.90;6.18;;;;;;;7.24;100.00;100137.28;5175044;28;20036;-76
2022/04/22 07:30:21;;;;;;;15.25;6.68;;;;;;;7.38;100.00;100141.16;5172229;28;20426;-76
2022/04/22 07:32:51;;;;;;;15.50;7.03;;;;;;;7.35;100.00;100135.22;5175360;28;20042;-76
2022/04/22 07:35:22;;;;;;;17.25;7.03;;;;;;;7.84;100.00;100133.66;5171204;28;20029;-76
2022/04/22 07:37:53;;;;;;;15.63;7.18;;;;;;;8.03;100.00;100126.97;5172023;28;20034;-76
2022/04/22 07:40:24;;;;;;;13.73;6.55;;;;;;;8.07;100.00;100128.56;5171855;28;20033;-76
2022/04/22 07:48:34;;;;;;;14.27;7.10;;;;;;;8.02;100.00;100132.25;5169245;28;20034;-77
2022/04/22 07:51:04;;;;;;;16.75;6.85;;;;;;;8.28;100.00;100130.50;5172803;28;20025;-77
2022/04/22 07:53:35;;;;;;;13.93;6.70;;;;;;;7.67;100.00;100128.13;5173056;28;20546;-76
2022/04/22 07:56:06;;;;;;;16.30;7.25;;;;;;;8.15;100.00;100129.19;5173253;28;20038;-76
2022/04/22 07:58:37;;;;;;;14.23;7.43;;;;;;;7.94;100.00;100135.09;5172602;28;20034;-76
2022/04/22 08:01:08;;;;;;;14.07;7.32;;;;;;;7.71;100.00;100150.53;5172165;28;20037;-76
2022/04/22 08:03:39;;;;;;;13.52;7.85;;;;;;;7.87;100.00;100136.16;5173295;28;20030;-77
2022/04/22 08:06:12;;;;;;;17.40;8.15;;;;;;;8.31;100.00;100140.81;5173411;28;20022;-77
2022/04/22 08:08:42;;;;;;;14.68;7.43;;;;;;;8.23;100.00;100135.00;5175683;28;20483;-76
2022/04/22 08:11:12;;;;;;;15.00;7.43;;;;;;;8.49;100.00;100140.19;5170975;28;20034;-76
2022/04/22 08:13:42;;;;;;;14.55;7.65;;;;;;;8.46;100.00;100140.31;5179692;28;20049;-76
2022/04/22 08:16:13;;;;;;;14.25;7.30;;;;;;;8.53;100.00;100133.13;5171401;28;20030;-76
2022/04/22 08:18:44;;;;;;;13.85;7.85;;;;;;;8.33;100.00;100141.63;5177315;28;20390;-77
2022/04/22 08:21:14;;;;;;;14.65;7.65;;;;;;;8.34;100.00;100137.25;5175823;28;20038;-76
2022/04/22 08:23:46;;;;;;;16.27;8.35;;;;;;;8.98;100.00;100134.97;5176881;28;20033;-77
2022/04/22 08:26:16;;;;;;;15.90;8.68;;;;;;;8.17;100.00;100139.53;5175732;28;20392;-76
2022/04/22 08:28:47;;;;;;;16.67;8.70;;;;;;;8.20;100.00;100150.72;5176514;28;20026;-76
2022/04/22 08:31:17;;;;;;;14.68;8.43;;;;;;;8.55;100.00;100141.75;5173748;28;20026;-76
2022/04/22 08:33:49;;;;;;;16.23;9.30;;;;;;;8.64;100.00;100136.19;5178044;28;20089;-76
2022/04/22 08:36:19;;;;;;;15.35;8.80;;;;;;;8.77;100.00;100138.34;5174744;28;20026;-77
2022/04/22 08:38:49;;;;;;;14.38;8.30;;;;;;;8.58;100.00;100139.88;5178927;28;20097;-76
2022/04/22 08:41:21;;;;;;;18.83;9.50;;;;;;;9.84;100.00;100137.72;5175197;28;20044;-76
2022/04/22 08:43:53;;;;;;;16.50;8.18;;;;;;;9.56;100.00;100131.88;5182338;28;20029;-77
2022/04/22 08:52:03;;;;;;;14.30;7.93;;;;;;;10.26;100.00;100117.75;5176498;28;20084;-76
2022/04/22 08:54:35;;;;;;;15.50;8.77;;;;;;;10.31;100.00;100113.19;5175356;28;20038;-77
2022/04/22 08:57:06;;;;;;;13.25;8.40;;;;;;;9.88;100.00;100115.81;5176007;28;20053;-76
2022/04/22 08:59:36;;;;;;;13.25;8.20;;;;;;;10.44;98.93;100117.84;5173775;28;20026;-77
2022/04/22 09:02:06;;;;;;;13.80;7.45;;;;;;;10.89;96.16;100120.22;5174437;28;20108;-76
2022/04/22 09:04:37;;;;;;;15.13;8.30;;;;;;;11.31;92.48;100119.97;5176383;28;20056;-77
2022/04/22 09:07:13;;;;;;;14.80;8.37;;;;;;;11.34;96.82;100125.09;5174690;28;20030;-77
2022/04/22 09:09:49;;;;;;;15.20;8.68;;;;;;;10.62;97.05;100135.34;5179119;28;20280;-76
2022/04/22 09:12:22;;;;;;;13.55;8.75;;;;;;;10.84;98.51;100124.81;5178153;28;20087;-77
2022/04/22 09:14:54;;;;;;;15.85;9.20;;;;;;;10.24;99.72;100128.28;5176760;28;20056;-77
2022/04/22 09:17:29;;;;;;;19.05;10.00;;;;;;;10.12;100.00;100133.13;5169759;28;20069;-76
2022/04/22 09:20:03;;;;;;;17.08;10.82;;;;;;;10.25;100.00;100134.31;5177342;28;20030;-77
2022/04/22 09:22:34;;;;;;;16.67;10.77;;;;;;;10.50;99.11;100135.03;5174236;28;20026;-76
2022/04/22 09:25:05;;;;;;;21.08;12.65;;;;;;;9.69;100.00;100125.28;5175848;28;20026;-77
2022/04/22 09:27:42;;;;;;;19.80;12.38;;;;;;;10.17;100.00;100123.34;5173681;28;20018;-76
2022/04/22 09:30:12;;;;;;;22.38;12.85;;;;;;;9.81;100.00;100123.03;5174417;28;20033;-76
2022/04/22 09:32:44;;;;;;;24.52;13.77;;;;;;;9.77;100.00;100125.81;5175743;28;20072;-76
2022/04/22 09:35:16;;;;;;;22.73;13.07;;;;;;;10.14;100.00;100126.09;5173984;28;20022;-76
2022/04/22 09:43:33;;;;;;;25.45;14.30;;;;;;;9.86;100.00;100135.91;5179572;28;20106;-76
2022/04/22 09:46:05;;;;;;;20.45;14.40;;;;;;;9.75;100.00;100133.72;5175625;28;20052;-76
2022/04/22 09:48:44;;;;;;;24.48;15.13;;;;;;;9.89;100.00;100123.59;5174267;28;20440;-77
2022/04/22 09:51:24;;;;;;;24.92;14.60;;;;;;;10.00;100.00;100117.94;5173501;28;20120;-77
2022/04/22 09:54:06;;;;;;;19.98;14.23;;;;;;;10.33;100.00;100116.59;5178733;28;20057;-76
2022/04/22 09:56:41;;;;;;;23.05;14.00;;;;;;;10.35;100.00;100117.38;5174559;28;20037;-78
2022/04/22 09:59:22;;;;;;;23.38;13.38;;;;;;;10.12;100.00;100123.53;5173438;28;20072;-76
2022/04/22 10:01:53;;;;;;;21.10;14.38;;;;;;;10.10;100.00;100120.16;5175753;28;20028;-76
2022/04/22 10:04:23;;;;;;;20.13;13.05;;;;;;;10.04;100.00;100119.53;5171739;28;20639;-77
2022/04/22 10:06:56;;;;;;;19.98;12.98;;;;;;;9.97;100.00;100112.84;5165710;28;20018;-77
2022/04/22 10:09:28;;;;;;;20.48;13.88;;;;;;;9.96;100.00;100112.00;5177507;28;20535;-79
2022/04/22 10:12:01;;;;;;;22.10;13.00;;;;;;;10.34;100.00;100106.06;5174182;28;20050;-76
2022/04/22 10:14:37;;;;;;;20.23;13.00;;;;;;;10.71;100.00;100113.19;5174877;28;20045;-76
2022/04/22 10:17:10;;;;;;;21.52;12.05;;;;;;;10.73;99.97;100117.44;5173555;28;20476;-76
2022/04/22 10:19:42;;;;;;;18.63;12.25;;;;;;;10.48;100.00;100110.72;5173803;28;20030;-76
2022/04/22 10:22:12;;;;;;;17.60;12.13;;;;;;;10.25;100.00;100105.59;5172328;28;20450;-78
2022/04/22 10:24:43;;;;;;;17.45;11.50;;;;;;;10.54;100.00;100106.06;5174031;28;20030;-76
2022/04/22 10:27:14;;;;;;;17.17;11.38;;;;;;;10.52;100.00;100096.63;5171368;28;20563;-76
2022/04/22 10:29:45;;;;;;;18.02;11.35;;;;;;;10.72;100.00;100091.38;5174113;28;20044;-76
2022/04/22 10:32:16;;;;;;;21.88;11.98;;;;;;;10.68;100.00;100085.41;5169397;28;20025;-76
2022/04/22 10:34:56;;;;;;;19.95;11.10;;;;;;;10.82;100.00;100079.59;5170256;28;20070;-76
2022/04/22 10:37:28;;;;;;;16.92;11.07;;;;;;;11.01;100.00;100080.47;5170886;28;20125;-76
2022/04/22 10:39:58;;;;;;;18.25;10.20;;;;;;;11.45;97.59;100075.72;5171334;28;20038;-76
2022/04/22 10:42:34;;;;;;;15.82;9.85;;;;;;;11.56;97.07;100070.88;5176904;28;20391;-76
2022/04/22 10:47:55;;;;;;;17.80;9.70;;;;;;;11.69;95.64;100072.00;5163798;28;20084;-76
2022/04/22 10:50:37;;;;;;;16.00;9.57;;;;;;;11.54;97.33;100070.06;5171313;28;20105;-77
2022/04/22 10:53:23;;;;;;;15.23;9.50;;;;;;;11.86;97.55;100068.53;5172461;28;20096;-76
2022/04/22 10:56:25;;;;;;;16.45;10.10;;;;;;;12.00;95.49;100074.81;5164508;28;20050;-76
2022/04/22 10:59:20;;;;;;;14.27;9.02;;;;;;;11.94;94.84;100063.78;5167251;28;20046;-76
2022/04/22 11:01:52;;;;;;;14.50;9.23;;;;;;;11.94;94.16;100056.78;5171781;28;20481;-76
2022/04/22 11:04:26;;;;;;;21.52;9.20;;;;;;;11.92;92.64;100058.63;5174911;28;20037;-76
2022/04/22 11:06:57;;;;;;;13.45;8.38;;;;;;;12.22;93.88;100059.72;5166262;28;20034;-76
2022/04/22 11:09:31;;;;;;;14.77;8.98;;;;;;;12.24;95.10;100050.00;5181061;28;20040;-77
2022/04/22 11:12:01;;;;;;;17.75;8.57;;;;;;;12.16;94.19;100048.69;5178479;28;20033;-76
2022/04/22 11:14:44;;;;;;;14.45;8.90;;;;;;;12.55;94.47;100042.28;5175561;28;20384;-77
2022/04/22 11:17:44;;;;;;;14.55;8.63;;;;;;;12.75;94.52;100026.34;5172218;28;20118;-76
2022/04/22 11:20:14;;;;;;;15.82;9.18;;;;;;;13.01;93.14;100033.69;5170633;28;20045;-76
2022/04/22 11:22:58;;;;;;;11.95;8.10;;;;;;;13.06;90.26;100029.88;5170957;28;20085;-76
2022/04/22 11:25:29;;;;;;;12.25;8.00;;;;;;;12.69;93.40;100028.44;5174499;28;20026;-76
2022/04/22 11:28:02;;;;;;;14.02;8.43;;;;;;;12.80;93.83;100024.31;5171304;28;20037;-76
2022/04/22 11:30:33;;;;;;;13.68;8.48;;;;;;;12.76;93.74;100014.91;5173422;28;20512;-76
2022/04/22 11:33:22;;;;;;;13.40;8.65;;;;;;;12.86;94.20;100018.75;5171847;28;20048;-77
2022/04/22 11:35:58;;;;;;;18.85;8.70;;;;;;;13.07;92.86;100013.22;5169091;28;20026;-76
2022/04/22 11:38:28;;;;;;;16.33;8.45;;;;;;;13.48;91.30;100016.16;5176729;28;20030;-76
2022/04/22 11:40:59;;;;;;;13.57;8.93;;;;;;;13.16;92.22;100012.72;5171503;28;20038;-76
2022/04/22 11:43:29;;;;;;;12.90;8.10;;;;;;;13.27;91.75;100007.72;5178570;28;20038;-76
2022/04/22 11:46:00;;;;;;;12.85;7.95;;;;;;;13.38;90.46;100015.00;5172603;28;20057;-76
2022/04/22 11:48:30;;;;;;;13.40;7.65;;;;;;;13.58;90.60;100004.22;5160713;28;20030;-76
2022/04/22 11:51:01;;;;;;;12.77;7.35;;;;;;;13.89;87.98;100005.00;5165468;28;20031;-76
2022/04/22 11:53:32;;;;;;;12.55;7.13;;;;;;;13.72;88.96;99999.03;5165512;28;20034;-76
2022/04/22 11:56:04;;;;;;;13.98;7.45;;;;;;;14.08;88.12;99994.28;5165968;28;20241;-76
2022/04/22 11:58:34;;;;;;;11.48;7.57;;;;;;;14.28;90.19;99989.53;5166272;28;20512;-77
2022/04/22 12:06:42;;;;;;;12.85;7.18;;;;;;;14.22;87.00;99987.28;5177707;28;20096;-77
2022/04/22 12:09:14;;;;;;;12.60;6.88;;;;;;;14.68;86.26;99980.06;5180796;28;20030;-76
2022/04/22 12:11:45;;;;;;;11.57;6.60;;;;;;;14.91;85.82;99973.31;5173602;28;20116;-77
2022/04/22 12:14:24;;;;;;;11.20;6.40;;;;;;;14.63;82.82;99971.63;5173049;28;20445;-77
2022/04/22 12:16:59;;;;;;;11.82;6.80;;;;;;;14.99;84.52;99968.41;5166355;28;20046;-77
2022/04/22 12:19:29;;;;;;;9.23;5.72;;;;;;;14.91;83.81;99960.16;5167831;28;20034;-77
2022/04/22 12:22:00;;;;;;;10.15;5.75;;;;;;;14.72;82.77;99976.31;5168942;28;20029;-76
2022/04/22 12:24:30;;;;;;;11.00;6.55;;;;;;;14.60;84.17;99966.56;5171408;28;20026;-79
2022/04/22 12:27:01;;;;;;;11.05;6.30;;;;;;;14.50;84.80;99970.69;5168052;28;20034;-77
2022/04/22 12:29:31;;;;;;;13.70;6.57;;;;;;;14.65;84.65;99964.50;5169262;28;20381;-77
2022/04/22 12:32:02;;;;;;;10.40;6.32;;;;;;;14.58;84.07;99957.94;5166891;28;20026;-78
2022/04/22 12:34:36;;;;;;;13.68;6.10;;;;;;;14.72;83.53;99939.47;5167516;28;20034;-78
2022/04/22 12:37:07;;;;;;;11.00;5.95;;;;;;;14.83;83.69;99943.16;5145484;28;20085;-77
2022/04/22 12:39:39;;;;;;;9.80;5.47;;;;;;;14.52;82.89;99940.75;5169287;28;20022;-78
2022/04/22 12:42:18;;;;;;;8.52;5.30;;;;;;;14.43;82.66;99933.41;5171640;28;20053;-77